Time;durP1;ratioP1;P1;durP2;ratioP2;P2;SDS_P1;SDS_P2;PMS_P1;PMS_P2;Temp;Humidity;BMP_temperature;BMP_pressure;BME280_temperature;BME280_humidity;BME280_pressure;Samples;Min_cycle;Max_cycle;Signal;HPM_P1;HPM_P2
2022/05/19 00:01:06;;;;;;;0.32;0.32;;;;;;;20.81;58.48;101825.19;5080075;28;20064;-80
2022/05/19 00:03:35;;;;;;;0.20;0.20;;;;;;;20.83;57.81;101823.28;5081941;28;20041;-79
2022/05/19 00:06:03;;;;;;;0.00;0.00;;;;;;;20.83;58.37;101823.28;5076327;28;20050;-79
2022/05/19 00:08:29;;;;;;;0.10;0.10;;;;;;;20.87;58.60;101818.63;5082547;28;20561;-80
2022/05/19 00:10:58;;;;;;;0.25;0.25;;;;;;;20.88;58.56;101812.31;5084910;28;20031;-80
2022/05/19 00:13:26;;;;;;;0.03;0.03;;;;;;;20.88;58.66;101812.31;5082733;28;20036;-80
2022/05/19 00:15:52;;;;;;;0.03;0.03;;;;;;;20.90;59.06;101810.41;5088580;28;20052;-80
2022/05/19 00:18:19;;;;;;;0.30;0.30;;;;;;;20.92;58.61;101817.50;5085260;28;20438;-80
2022/05/19 00:20:46;;;;;;;0.00;0.00;;;;;;;20.92;59.01;101822.88;5082416;28;20056;-80
2022/05/19 00:23:13;;;;;;;0.00;0.00;;;;;;;20.95;58.80;101825.41;5080538;28;20512;-80
2022/05/19 00:25:39;;;;;;;0.10;0.10;;;;;;;20.98;58.36;101822.53;5081331;28;20420;-80
2022/05/19 00:28:06;;;;;;;0.57;0.57;;;;;;;20.97;58.95;101812.75;5084032;28;20032;-79
2022/05/19 00:30:33;;;;;;;0.10;0.10;;;;;;;20.96;58.88;101818.19;5085108;28;20568;-79
2022/05/19 00:33:00;;;;;;;0.20;0.20;;;;;;;20.93;59.10;101800.34;5077112;28;20050;-79
2022/05/19 00:35:26;;;;;;;0.00;0.00;;;;;;;20.94;58.59;101803.94;5076867;28;20028;-79
2022/05/19 00:37:52;;;;;;;0.05;0.05;;;;;;;20.94;59.25;101799.41;5076664;28;20085;-79
2022/05/19 00:40:21;;;;;;;0.20;0.20;;;;;;;20.96;58.76;101802.03;5084168;28;20036;-80
2022/05/19 00:42:47;;;;;;;0.63;0.63;;;;;;;20.96;58.06;101794.81;5083154;28;20403;-79
2022/05/19 00:45:19;;;;;;;3.03;0.82;;;;;;;20.99;58.98;101777.63;5075382;28;20028;-80
2022/05/19 00:48:08;;;;;;;0.10;0.10;;;;;;;20.96;59.39;101781.34;5072950;28;20261;-79
2022/05/19 00:50:42;;;;;;;0.40;0.40;;;;;;;20.96;59.19;101778.66;5076056;28;20141;-79
2022/05/19 00:53:13;;;;;;;0.10;0.10;;;;;;;20.93;59.11;101768.03;5076756;28;20032;-80
2022/05/19 00:55:47;;;;;;;0.15;0.15;;;;;;;20.94;59.66;101768.91;5075158;22;20050;-84
2022/05/19 00:58:21;;;;;;;0.40;0.40;;;;;;;20.89;59.55;101755.66;5044559;28;20469;-84
2022/05/19 01:00:47;;;;;;;0.52;0.45;;;;;;;20.86;59.53;101763.91;5044550;28;20033;-83
2022/05/19 01:03:16;;;;;;;0.03;0.03;;;;;;;20.83;59.58;101764.03;5038895;28;20484;-84
2022/05/19 01:05:48;;;;;;;0.00;0.00;;;;;;;20.82;59.46;101754.22;5046343;28;20046;-83
2022/05/19 01:08:20;;;;;;;0.30;0.30;;;;;;;20.79;59.30;101754.38;5042412;28;20029;-84
2022/05/19 01:10:48;;;;;;;0.52;0.52;;;;;;;20.77;59.65;101753.56;5056071;28;20041;-84
2022/05/19 01:13:15;;;;;;;0.38;0.38;;;;;;;20.74;59.89;101741.13;5050256;28;20029;-84
2022/05/19 01:15:49;;;;;;;0.00;0.00;;;;;;;20.77;59.43;101727.53;5048437;28;20056;-84
2022/05/19 01:18:16;;;;;;;0.28;0.28;;;;;;;20.74;59.50;101726.81;5047430;28;20048;-84
2022/05/19 01:20:48;;;;;;;0.77;0.77;;;;;;;20.80;59.23;101734.59;5048676;28;20138;-84
2022/05/19 01:28:58;;;;;;;0.68;0.30;;;;;;;20.79;59.05;101711.28;5075299;27;20411;-79
2022/05/19 01:32:01;;;;;;;0.00;0.00;;;;;;;20.85;59.46;101721.75;5065609;28;20318;-79
2022/05/19 01:34:30;;;;;;;0.15;0.15;;;;;;;20.78;59.35;101715.78;5054209;28;20462;-79
2022/05/19 01:36:58;;;;;;;0.08;0.08;;;;;;;20.79;59.01;101727.44;5049542;28;20025;-79
2022/05/19 01:39:28;;;;;;;0.10;0.10;;;;;;;20.83;58.79;101720.94;5067284;28;20111;-80
2022/05/19 01:42:24;;;;;;;0.20;0.20;;;;;;;20.89;59.26;101715.25;5056463;28;20210;-79
2022/05/19 01:45:14;;;;;;;0.20;0.20;;;;;;;20.89;59.70;101717.09;5049598;28;20055;-79
2022/05/19 01:47:57;;;;;;;0.00;0.00;;;;;;;20.94;60.02;101718.59;5054227;28;20092;-79
2022/05/19 01:53:15;;;;;;;0.00;0.00;;;;;;;21.00;60.02;101707.50;5070384;28;20767;-78
2022/05/19 02:01:05;;;;;;;0.03;0.03;;;;;;;21.06;59.77;101692.88;5068035;28;20410;-80
2022/05/19 02:03:41;;;;;;;0.00;0.00;;;;;;;21.12;59.91;101679.09;5075001;28;20104;-79
2022/05/19 02:06:17;;;;;;;0.10;0.10;;;;;;;21.14;59.84;101684.38;5064613;28;20396;-79
2022/05/19 02:11:29;;;;;;;0.08;0.08;;;;;;;21.21;59.91;101679.53;5135257;27;20349;-80
2022/05/19 02:14:00;;;;;;;0.00;0.00;;;;;;;21.20;60.69;101689.47;5133111;27;20027;-79
2022/05/19 02:16:30;;;;;;;0.00;0.00;;;;;;;21.25;59.57;101716.19;5133696;27;20032;-79
2022/05/19 02:18:57;;;;;;;0.10;0.10;;;;;;;21.27;59.25;101752.88;5131778;27;20027;-79
2022/05/19 02:21:25;;;;;;;0.98;0.93;;;;;;;21.23;59.80;101769.28;5132864;27;20606;-79
2022/05/19 02:23:52;;;;;;;1.85;1.75;;;;;;;21.15;60.27;101778.63;5132677;27;20030;-79
2022/05/19 02:26:18;;;;;;;0.00;0.00;;;;;;;21.13;61.03;101811.97;5132422;27;20114;-80
2022/05/19 02:28:52;;;;;;;0.70;0.68;;;;;;;21.18;61.14;101815.31;5131114;27;20080;-81
2022/05/19 02:31:19;;;;;;;1.40;0.90;;;;;;;21.17;61.95;101821.66;5129350;27;20074;-80
2022/05/19 02:33:45;;;;;;;0.10;0.10;;;;;;;21.16;62.58;101839.66;5127356;28;20051;-80
2022/05/19 02:36:11;;;;;;;0.30;0.30;;;;;;;21.08;63.24;101862.53;5132110;27;20043;-80
2022/05/19 02:38:38;;;;;;;0.30;0.30;;;;;;;21.04;63.95;101850.16;5130279;27;20035;-79
2022/05/19 02:41:05;;;;;;;2.40;0.55;;;;;;;21.05;63.98;101846.50;5126803;27;20019;-78
2022/05/19 02:43:31;;;;;;;0.22;0.22;;;;;;;21.05;64.91;101846.50;5124082;28;20085;-78
2022/05/19 02:45:57;;;;;;;0.68;0.68;;;;;;;20.99;65.57;101848.53;5129445;28;20027;-78
2022/05/19 02:48:23;;;;;;;0.10;0.10;;;;;;;20.93;65.92;101854.22;5130337;28;20027;-78
2022/05/19 02:50:51;;;;;;;0.63;0.63;;;;;;;20.88;66.31;101834.72;5128285;28;20031;-78
2022/05/19 02:53:19;;;;;;;1.83;1.00;;;;;;;20.89;66.98;101809.53;5130745;27;20114;-78
2022/05/19 02:55:45;;;;;;;1.23;0.65;;;;;;;20.97;65.90;101815.44;5130520;28;20438;-79
2022/05/19 02:58:12;;;;;;;0.10;0.10;;;;;;;20.99;66.23;101828.81;5123925;28;20088;-78
2022/05/19 03:00:41;;;;;;;1.77;0.95;;;;;;;20.89;65.81;101836.47;5123466;27;20027;-79
2022/05/19 03:03:07;;;;;;;0.40;0.40;;;;;;;20.90;65.88;101846.31;5127979;27;20023;-79
2022/05/19 03:05:34;;;;;;;0.73;0.65;;;;;;;20.82;66.14;101835.00;5130637;28;20023;-79
2022/05/19 03:08:00;;;;;;;0.22;0.22;;;;;;;20.84;65.57;101849.28;5130466;27;20027;-78
2022/05/19 03:10:27;;;;;;;0.10;0.10;;;;;;;20.74;65.89;101839.91;5127435;27;20084;-78
2022/05/19 03:12:56;;;;;;;0.08;0.08;;;;;;;20.79;64.77;101875.56;5123412;28;20046;-76
2022/05/19 03:15:23;;;;;;;0.63;0.63;;;;;;;20.69;65.85;101873.25;5126076;27;20481;-76
2022/05/19 03:17:49;;;;;;;0.00;0.00;;;;;;;20.71;65.79;101858.84;5127749;27;20027;-76
2022/05/19 03:20:16;;;;;;;0.00;0.00;;;;;;;20.74;65.67;101846.16;5127393;28;20027;-76
2022/05/19 03:22:43;;;;;;;0.00;0.00;;;;;;;20.74;65.78;101837.22;5113271;28;20160;-76
2022/05/19 03:25:10;;;;;;;0.00;0.00;;;;;;;20.71;65.48;101813.06;5114004;28;20031;-79
2022/05/19 03:27:37;;;;;;;0.00;0.00;;;;;;;20.71;65.80;101805.00;5109793;28;20547;-76
2022/05/19 03:30:06;;;;;;;0.00;0.00;;;;;;;20.68;66.19;101795.25;5112144;27;20042;-76
2022/05/19 03:32:32;;;;;;;0.05;0.05;;;;;;;20.62;66.62;101791.03;5110505;28;20427;-76
2022/05/19 03:34:58;;;;;;;0.00;0.00;;;;;;;20.67;65.92;101789.00;5113801;27;20028;-76
2022/05/19 03:37:24;;;;;;;0.00;0.00;;;;;;;20.67;65.88;101794.38;5112993;28;20035;-76
2022/05/19 03:39:51;;;;;;;0.10;0.10;;;;;;;20.68;66.35;101790.72;5113016;27;20028;-76
2022/05/19 03:42:17;;;;;;;0.15;0.15;;;;;;;20.71;66.25;101786.13;5112899;28;20130;-76
2022/05/19 03:44:43;;;;;;;0.00;0.00;;;;;;;20.71;66.61;101796.91;5110948;28;20111;-76
2022/05/19 03:47:10;;;;;;;6.30;0.50;;;;;;;20.69;66.91;101807.75;5112686;28;20058;-76
2022/05/19 03:49:36;;;;;;;0.52;0.52;;;;;;;20.74;66.36;101815.66;5114336;28;20028;-76
2022/05/19 03:52:03;;;;;;;0.20;0.20;;;;;;;20.75;66.43;101834.44;5112579;27;20028;-76
2022/05/19 03:54:29;;;;;;;0.05;0.05;;;;;;;20.77;65.97;101840.63;5113576;28;20028;-76
2022/05/19 03:56:55;;;;;;;0.25;0.25;;;;;;;20.80;65.83;101859.34;5110755;28;20030;-76
2022/05/19 03:59:21;;;;;;;0.00;0.00;;;;;;;20.71;65.71;101881.31;5111931;28;20715;-76
2022/05/19 04:01:48;;;;;;;0.32;0.32;;;;;;;20.74;65.27;101905.41;5111750;27;20043;-76
2022/05/19 04:04:14;;;;;;;0.00;0.00;;;;;;;20.66;65.62;101905.72;5113240;28;20042;-76
2022/05/19 04:06:40;;;;;;;0.00;0.00;;;;;;;20.64;65.70;101910.28;5112671;28;20100;-76
2022/05/19 04:09:06;;;;;;;0.20;0.20;;;;;;;20.57;66.06;101922.28;5112693;28;20035;-75
2022/05/19 04:11:33;;;;;;;0.00;0.00;;;;;;;20.52;66.48;101911.75;5107461;28;20653;-75
2022/05/19 04:13:59;;;;;;;0.10;0.10;;;;;;;20.56;66.52;101887.34;5111113;28;20035;-76
2022/05/19 04:16:26;;;;;;;0.00;0.00;;;;;;;20.48;67.38;101885.03;5112643;28;20027;-76
2022/05/19 04:18:52;;;;;;;0.10;0.10;;;;;;;20.50;67.68;101867.00;5113474;28;20039;-76
2022/05/19 04:21:19;;;;;;;1.45;1.15;;;;;;;20.58;66.83;101856.72;5112426;28;20419;-76
2022/05/19 04:23:46;;;;;;;0.00;0.00;;;;;;;20.64;66.75;101863.66;5112848;28;20485;-76
2022/05/19 04:26:12;;;;;;;0.10;0.10;;;;;;;20.68;66.58;101849.97;5110029;28;20035;-76
2022/05/19 04:28:38;;;;;;;0.10;0.10;;;;;;;20.71;66.96;101829.22;5109605;28;20047;-76
2022/05/19 04:31:04;;;;;;;1.25;0.90;;;;;;;20.78;66.64;101833.41;5110861;28;20035;-76
2022/05/19 04:33:30;;;;;;;0.17;0.17;;;;;;;20.81;66.69;101852.13;5111656;28;20035;-76
2022/05/19 04:35:56;;;;;;;0.10;0.10;;;;;;;20.82;67.79;101870.91;5111736;28;20390;-76
2022/05/19 04:38:22;;;;;;;0.00;0.00;;;;;;;20.79;67.75;101872.88;5111892;28;20084;-76
2022/05/19 04:40:50;;;;;;;0.00;0.00;;;;;;;20.78;67.70;101881.91;5110923;28;20031;-76
2022/05/19 04:43:21;;;;;;;0.10;0.10;;;;;;;20.80;67.46;101888.09;5110824;28;20032;-76
2022/05/19 04:45:49;;;;;;;0.57;0.30;;;;;;;20.83;66.97;101885.25;5110629;28;20114;-76
2022/05/19 04:48:15;;;;;;;0.00;0.00;;;;;;;20.87;67.09;101888.66;5112043;28;20374;-76
2022/05/19 04:50:41;;;;;;;0.00;0.00;;;;;;;20.92;67.04;101881.25;5111267;28;20032;-75
2022/05/19 04:53:08;;;;;;;0.03;0.03;;;;;;;20.94;66.75;101874.84;5111287;28;20027;-76
2022/05/19 04:55:36;;;;;;;0.10;0.10;;;;;;;20.98;67.12;101872.88;5110040;28;20112;-76
2022/05/19 04:58:02;;;;;;;0.10;0.10;;;;;;;21.00;67.53;101876.38;5107192;28;20386;-76
2022/05/19 05:00:29;;;;;;;0.00;0.00;;;;;;;21.02;67.67;101866.38;5110530;27;20049;-76
2022/05/19 05:02:55;;;;;;;0.10;0.10;;;;;;;21.03;67.21;101853.81;5107871;28;20036;-76
2022/05/19 05:05:23;;;;;;;0.00;0.00;;;;;;;21.10;66.93;101833.72;5111460;28;20032;-77
2022/05/19 05:07:49;;;;;;;0.00;0.00;;;;;;;21.15;67.16;101835.22;5111436;28;20028;-76
2022/05/19 05:10:15;;;;;;;0.10;0.10;;;;;;;21.16;66.97;101831.56;5109989;28;20031;-76
2022/05/19 05:12:41;;;;;;;0.10;0.10;;;;;;;21.14;66.99;101819.97;5110228;28;20114;-77
2022/05/19 05:15:08;;;;;;;0.00;0.00;;;;;;;21.17;67.13;101808.19;5111824;28;20053;-76
2022/05/19 05:17:35;;;;;;;0.10;0.10;;;;;;;21.19;67.81;101805.44;5111161;28;20033;-77
2022/05/19 05:20:03;;;;;;;0.10;0.10;;;;;;;21.19;67.72;101798.19;5111489;27;20050;-76
2022/05/19 05:22:30;;;;;;;0.32;0.32;;;;;;;21.20;67.49;101797.25;5111501;28;20523;-76
2022/05/19 05:24:57;;;;;;;0.10;0.10;;;;;;;21.21;66.82;101787.34;5112107;28;20460;-77
2022/05/19 05:27:23;;;;;;;0.00;0.00;;;;;;;21.21;67.46;101772.06;5103761;28;20043;-76
2022/05/19 05:29:49;;;;;;;0.10;0.10;;;;;;;21.23;66.37;101764.75;5103825;28;20110;-76
2022/05/19 05:32:15;;;;;;;0.10;0.10;;;;;;;21.22;67.15;101765.72;5108457;27;20067;-76
2022/05/19 05:34:41;;;;;;;0.38;0.35;;;;;;;21.25;66.81;101759.31;5110263;27;20019;-76
2022/05/19 05:37:07;;;;;;;0.10;0.10;;;;;;;21.29;66.44;101759.06;5110967;28;20031;-76
2022/05/19 05:39:34;;;;;;;0.10;0.10;;;;;;;21.29;67.45;101768.97;5109643;27;20032;-76
2022/05/19 05:42:00;;;;;;;0.00;0.00;;;;;;;21.33;67.15;101757.97;5103301;28;20131;-76
2022/05/19 05:44:26;;;;;;;0.10;0.10;;;;;;;21.39;67.32;101761.28;5102225;28;20028;-76
2022/05/19 05:46:52;;;;;;;0.10;0.10;;;;;;;21.45;67.60;101767.22;5105410;28;20023;-78
2022/05/19 05:49:18;;;;;;;0.10;0.10;;;;;;;21.52;67.23;101753.44;5111460;28;20082;-77
2022/05/19 05:51:46;;;;;;;0.00;0.00;;;;;;;21.57;67.54;101741.50;5109720;28;20027;-78
2022/05/19 05:54:12;;;;;;;0.17;0.17;;;;;;;21.63;67.38;101745.69;5113941;28;20038;-78
2022/05/19 05:56:38;;;;;;;0.10;0.10;;;;;;;21.70;67.70;101730.09;5095364;28;20026;-78
2022/05/19 05:59:04;;;;;;;0.10;0.10;;;;;;;21.74;67.26;101726.25;5099591;28;20023;-78
2022/05/19 06:01:30;;;;;;;0.10;0.10;;;;;;;21.78;67.55;101722.44;5103407;28;20043;-78
2022/05/19 06:03:57;;;;;;;0.20;0.20;;;;;;;21.86;67.14;101725.59;5099674;27;20414;-77
2022/05/19 06:06:25;;;;;;;0.10;0.10;;;;;;;21.91;67.52;101728.91;5111977;28;20111;-78
2022/05/19 06:08:51;;;;;;;0.20;0.20;;;;;;;21.94;67.20;101723.38;5105519;28;20118;-78
2022/05/19 06:11:18;;;;;;;0.08;0.08;;;;;;;21.98;67.12;101710.56;5113502;28;20044;-78
2022/05/19 06:13:45;;;;;;;0.10;0.10;;;;;;;22.00;66.77;101694.31;5113725;28;20020;-78
2022/05/19 06:16:12;;;;;;;1.10;0.52;;;;;;;22.03;67.06;101700.41;5111600;28;20039;-78
2022/05/19 06:18:38;;;;;;;0.00;0.00;;;;;;;22.04;67.02;101691.34;5107127;28;20089;-78
2022/05/19 06:21:05;;;;;;;0.10;0.10;;;;;;;22.04;67.11;101695.88;5111289;28;20054;-78
2022/05/19 06:23:32;;;;;;;0.30;0.20;;;;;;;22.02;67.30;101697.78;5112833;28;20027;-78
2022/05/19 06:25:59;;;;;;;0.08;0.08;;;;;;;22.10;66.66;101709.88;5112660;28;20020;-78
2022/05/19 06:28:25;;;;;;;0.00;0.00;;;;;;;22.11;66.75;101718.88;5105570;28;20036;-78
2022/05/19 06:30:52;;;;;;;0.10;0.10;;;;;;;22.11;66.61;101724.28;5111898;28;20110;-78
2022/05/19 06:33:20;;;;;;;0.25;0.25;;;;;;;22.17;66.60;101740.13;5112908;27;20119;-78
2022/05/19 06:35:46;;;;;;;0.10;0.10;;;;;;;22.20;66.60;101737.25;5112528;28;20039;-78
2022/05/19 06:38:13;;;;;;;0.10;0.10;;;;;;;22.27;66.49;101735.97;5111131;28;20477;-78
2022/05/19 06:40:39;;;;;;;0.30;0.30;;;;;;;22.36;66.60;101734.56;5111784;27;20032;-78
2022/05/19 06:43:09;;;;;;;0.30;0.30;;;;;;;22.46;66.88;101716.94;5112665;28;20101;-79
2022/05/19 06:45:36;;;;;;;0.10;0.10;;;;;;;22.50;66.53;101720.31;5112295;28;20477;-77
2022/05/19 06:48:03;;;;;;;0.60;0.60;;;;;;;22.54;66.54;101716.53;5111848;28;20028;-77
2022/05/19 06:50:29;;;;;;;0.10;0.10;;;;;;;22.57;66.38;101715.47;5109877;28;20024;-77
2022/05/19 06:53:01;;;;;;;0.10;0.10;;;;;;;22.64;66.41;101721.38;5107943;28;20047;-77
2022/05/19 06:58:05;;;;;;;0.00;0.00;;;;;;;22.75;66.57;101719.81;5054525;28;20064;-78
2022/05/19 07:00:32;;;;;;;0.10;0.10;;;;;;;22.84;66.11;101715.72;5057746;28;20028;-79
2022/05/19 07:03:00;;;;;;;0.00;0.00;;;;;;;22.89;66.04;101729.81;5058846;28;20033;-79
2022/05/19 07:05:32;;;;;;;0.15;0.15;;;;;;;22.98;65.94;101727.53;5059359;28;20041;-78
2022/05/19 07:07:58;;;;;;;0.20;0.20;;;;;;;23.03;66.02;101738.94;5053192;28;20069;-79
2022/05/19 07:10:27;;;;;;;0.20;0.20;;;;;;;23.10;65.96;101734.91;5046551;28;20108;-78
2022/05/19 07:12:53;;;;;;;0.10;0.10;;;;;;;23.17;65.90;101747.16;5048981;28;20161;-79
2022/05/19 07:15:19;;;;;;;0.30;0.30;;;;;;;23.25;65.34;101734.06;5058442;28;20459;-79
2022/05/19 07:17:46;;;;;;;0.08;0.08;;;;;;;23.27;65.40;101731.25;5057324;28;20032;-79
2022/05/19 07:20:44;;;;;;;0.10;0.10;;;;;;;23.37;65.04;101753.22;5057460;28;20146;-79
2022/05/19 07:22:59;;;;;;;0.15;0.15;;;;;;;23.40;64.77;101758.41;5050607;28;20459;-79
2022/05/19 07:25:26;;;;;;;0.88;0.85;;;;;;;23.46;64.77;101754.50;5045601;28;20056;-79
2022/05/19 07:27:52;;;;;;;0.10;0.10;;;;;;;23.52;64.48;101754.13;5036184;28;20056;-79
2022/05/19 07:30:18;;;;;;;0.60;0.60;;;;;;;23.58;64.45;101765.44;5037145;28;20034;-79
2022/05/19 07:32:44;;;;;;;0.20;0.20;;;;;;;23.69;64.39;101766.59;5035583;28;20026;-79
2022/05/19 07:35:13;;;;;;;0.45;0.45;;;;;;;23.79;64.24;101764.22;5018870;28;20409;-79
2022/05/19 07:37:39;;;;;;;0.10;0.10;;;;;;;23.88;64.12;101769.06;5044735;28;20492;-79
2022/05/19 07:40:07;;;;;;;0.20;0.20;;;;;;;23.98;63.70;101759.44;5045536;28;20060;-80
2022/05/19 07:42:33;;;;;;;0.10;0.10;;;;;;;24.03;63.22;101762.72;5053923;28;20554;-79
2022/05/19 07:45:00;;;;;;;0.10;0.10;;;;;;;24.06;62.59;101758.94;5055775;28;20040;-79
2022/05/19 07:47:29;;;;;;;0.63;0.63;;;;;;;24.11;63.35;101756.81;5056331;28;20078;-78
2022/05/19 07:49:56;;;;;;;0.10;0.10;;;;;;;24.21;63.06;101758.00;5052080;28;20025;-77
2022/05/19 07:52:23;;;;;;;0.10;0.10;;;;;;;24.26;62.89;101757.69;5035297;28;20554;-78
2022/05/19 07:54:49;;;;;;;0.17;0.17;;;;;;;24.25;62.57;101752.38;5036250;28;20029;-78
2022/05/19 07:57:15;;;;;;;0.20;0.20;;;;;;;24.21;62.11;101758.00;5049233;28;20195;-78
2022/05/19 07:59:41;;;;;;;0.20;0.20;;;;;;;24.18;62.43;101744.63;5055754;28;20021;-77
2022/05/19 08:02:08;;;;;;;0.20;0.20;;;;;;;24.22;61.40;101753.44;5056153;28;20029;-78
2022/05/19 08:04:34;;;;;;;0.10;0.10;;;;;;;24.32;61.92;101732.06;5053856;28;20033;-78
2022/05/19 08:07:01;;;;;;;0.10;0.10;;;;;;;24.39;62.34;101742.41;5053285;28;20484;-78
2022/05/19 08:15:40;;;;;;;0.00;0.00;;;;;;;24.61;61.53;101756.41;5055824;28;20041;-80
2022/05/19 08:17:55;;;;;;;2.40;1.17;;;;;;;24.69;60.98;101762.22;5040015;28;20424;-80
2022/05/19 08:20:21;;;;;;;0.60;0.60;;;;;;;24.79;61.05;101749.81;5048617;28;20029;-80
2022/05/19 08:22:47;;;;;;;0.10;0.10;;;;;;;24.76;60.22;101750.03;5066220;28;20025;-80
2022/05/19 08:25:14;;;;;;;0.10;0.10;;;;;;;24.77;60.92;101751.72;5055021;28;20040;-79
2022/05/19 08:27:44;;;;;;;0.10;0.10;;;;;;;24.78;60.49;101753.47;5056249;28;20116;-79
2022/05/19 08:30:12;;;;;;;0.00;0.00;;;;;;;24.82;59.52;101749.63;5057689;28;20029;-79
2022/05/19 08:32:38;;;;;;;0.10;0.10;;;;;;;24.94;60.47;101747.91;5057542;28;20424;-79
2022/05/19 08:35:06;;;;;;;0.00;0.00;;;;;;;25.01;60.74;101748.34;5057293;28;20044;-80
2022/05/19 08:37:32;;;;;;;0.28;0.28;;;;;;;25.00;60.54;101744.78;5057702;28;20033;-79
2022/05/19 08:39:58;;;;;;;0.38;0.38;;;;;;;24.96;59.40;101745.09;5055590;28;20036;-80
2022/05/19 08:42:27;;;;;;;0.20;0.20;;;;;;;24.97;59.68;101750.44;5053947;28;20040;-77
2022/05/19 08:44:57;;;;;;;0.35;0.35;;;;;;;24.98;59.27;101744.00;5053092;28;20052;-78
2022/05/19 08:47:28;;;;;;;0.10;0.10;;;;;;;25.06;59.54;101748.94;5054714;28;20484;-79
2022/05/19 08:50:05;;;;;;;0.70;0.63;;;;;;;25.15;58.96;101748.31;5075712;28;20246;-79
2022/05/19 08:52:39;;;;;;;0.30;0.30;;;;;;;25.17;59.29;101749.09;5067013;28;20036;-79
2022/05/19 08:55:05;;;;;;;0.10;0.10;;;;;;;25.15;59.13;101756.44;5060756;28;20454;-78
2022/05/19 09:11:18;;;;;;;0.20;0.20;;;;;;;25.60;58.07;101755.28;5098779;27;1244948;-77
2022/05/19 09:14:21;;;;;;;0.10;0.10;;;;;;;25.75;57.51;101747.91;5115728;28;20041;-77
2022/05/19 09:16:48;;;;;;;0.00;0.00;;;;;;;25.88;58.15;101756.91;5103613;28;20150;-77
2022/05/19 09:19:23;;;;;;;0.25;0.25;;;;;;;26.12;57.72;101769.75;5103242;28;20020;-77
2022/05/19 09:22:15;;;;;;;0.00;0.00;;;;;;;26.25;56.29;101767.03;5088932;28;20024;-77
2022/05/19 09:24:44;;;;;;;0.10;0.10;;;;;;;26.38;57.08;101770.63;5089865;28;20401;-77
2022/05/19 09:27:12;;;;;;;1.63;1.17;;;;;;;26.47;55.05;101771.78;5091514;28;20096;-77
2022/05/19 09:29:44;;;;;;;0.05;0.05;;;;;;;26.61;56.13;101765.34;5107183;28;20024;-77
2022/05/19 09:32:24;;;;;;;0.17;0.17;;;;;;;26.71;55.77;101763.66;5088748;28;20031;-77
2022/05/19 09:35:00;;;;;;;0.10;0.10;;;;;;;26.66;55.86;101748.69;5089187;28;20032;-77
2022/05/19 09:40:26;;;;;;;3.53;0.38;;;;;;;26.79;55.14;101753.13;5109402;27;20384;-77
2022/05/19 09:45:38;;;;;;;0.85;0.85;;;;;;;26.87;53.45;101735.38;5062277;28;20424;-76
2022/05/19 09:48:07;;;;;;;0.43;0.43;;;;;;;26.90;55.77;101724.25;5044737;28;20044;-77
2022/05/19 09:50:50;;;;;;;0.10;0.10;;;;;;;27.16;56.02;101729.59;5044657;28;20041;-77
2022/05/19 09:53:23;;;;;;;0.10;0.10;;;;;;;27.29;53.76;101725.78;5049322;28;20022;-77
2022/05/19 09:55:57;;;;;;;0.30;0.20;;;;;;;27.36;54.20;101720.72;5040368;28;20021;-77
2022/05/19 09:58:29;;;;;;;0.10;0.10;;;;;;;27.46;53.65;101714.63;5048679;28;20042;-77
2022/05/19 10:01:03;;;;;;;0.10;0.10;;;;;;;27.54;54.22;101701.25;5042950;28;20119;-77
2022/05/19 10:03:38;;;;;;;0.10;0.10;;;;;;;27.60;53.91;101690.75;5048323;28;20029;-78
2022/05/19 10:06:14;;;;;;;0.35;0.35;;;;;;;27.72;53.94;101693.50;5049238;28;20731;-77
2022/05/19 10:08:44;;;;;;;0.93;0.52;;;;;;;27.85;52.66;101687.94;5043396;28;20447;-78
2022/05/19 10:11:27;;;;;;;0.13;0.13;;;;;;;28.03;51.62;101683.72;5048512;28;20043;-77
2022/05/19 10:14:03;;;;;;;0.00;0.00;;;;;;;28.16;51.91;101685.47;5042067;28;20013;-78
2022/05/19 10:16:56;;;;;;;0.00;0.00;;;;;;;28.34;52.56;101683.13;5048207;28;20025;-77
2022/05/19 10:19:53;;;;;;;0.10;0.10;;;;;;;28.44;48.48;101672.28;5047789;28;20037;-76
2022/05/19 10:31:07;;;;;;;0.10;0.10;;;;;;;28.05;50.35;101732.66;5082135;28;20044;-77
2022/05/19 10:36:43;;;;;;;0.43;0.43;;;;;;;27.55;51.49;101725.66;5108782;27;20454;-77
2022/05/19 10:39:38;;;;;;;0.10;0.10;;;;;;;27.32;51.99;101730.13;5109454;28;20040;-77
2022/05/19 10:42:31;;;;;;;0.20;0.20;;;;;;;27.08;52.24;101750.06;5107005;28;20509;-77
2022/05/19 10:50:38;;;;;;;0.38;0.38;;;;;;;26.72;53.40;101748.25;5109690;27;20388;-77
2022/05/19 10:53:44;;;;;;;0.25;0.25;;;;;;;26.70;52.59;101742.91;5109514;28;20035;-77
2022/05/19 11:07:34;;;;;;;0.57;0.57;;;;;;;25.64;57.29;101844.50;5012411;27;3574924;-74
2022/05/19 11:10:40;;;;;;;2.78;1.77;;;;;;;24.78;60.62;101932.34;5120779;28;20111;-75
2022/05/19 11:18:36;;;;;;;0.88;0.82;;;;;;;22.15;64.43;101963.34;5109835;27;20391;-75
2022/05/19 11:21:13;;;;;;;0.80;0.73;;;;;;;21.84;66.64;101967.59;5106685;28;20378;-75
2022/05/19 11:26:38;;;;;;;0.30;0.30;;;;;;;21.58;67.70;101963.50;5078397;28;20774;-75
2022/05/19 11:31:57;;;;;;;0.20;0.20;;;;;;;21.56;67.18;101944.69;5115733;27;1217876;-75
2022/05/19 11:34:35;;;;;;;0.00;0.00;;;;;;;21.59;66.85;101922.94;5131224;27;20034;-75
2022/05/19 11:43:06;;;;;;;0.25;0.25;;;;;;;21.49;69.08;101937.81;5078653;27;20398;-75
2022/05/19 11:57:30;;;;;;;1.63;0.68;;;;;;;21.49;68.68;101916.25;5101026;28;20119;-76
2022/05/19 12:00:02;;;;;;;0.03;0.03;;;;;;;21.52;68.25;101907.13;5089871;28;20032;-76
2022/05/19 12:02:39;;;;;;;0.05;0.05;;;;;;;21.58;67.94;101910.44;5088452;28;20412;-77
2022/05/19 12:05:28;;;;;;;0.00;0.00;;;;;;;21.64;67.81;101896.63;5101985;28;20075;-76
2022/05/19 12:07:58;;;;;;;0.05;0.05;;;;;;;21.54;68.49;101891.75;5104394;28;20036;-76
2022/05/19 12:10:35;;;;;;;0.08;0.08;;;;;;;21.59;67.93;101879.81;5108121;28;20023;-77
2022/05/19 12:13:04;;;;;;;0.10;0.10;;;;;;;21.55;68.34;101875.50;5100695;28;20089;-77
2022/05/19 12:18:32;;;;;;;0.10;0.10;;;;;;;21.60;68.57;101854.59;4841411;27;8605082;-77
2022/05/19 12:23:41;;;;;;;0.00;0.00;;;;;;;21.80;68.33;101855.41;5090910;27;20464;-77
2022/05/19 12:26:19;;;;;;;0.25;0.25;;;;;;;21.80;68.68;101845.47;5090008;28;20047;-77
2022/05/19 12:32:07;;;;;;;0.40;0.40;;;;;;;21.83;68.84;101824.69;5089657;27;20384;-77
2022/05/19 12:34:27;;;;;;;0.20;0.20;;;;;;;21.80;68.60;101791.53;5089311;28;20042;-77
2022/05/19 12:37:05;;;;;;;;;;;;;;;21.95;68.56;101776.34;5088270;28;20069;-76
2022/05/19 12:39:42;;;;;;;0.22;0.22;;;;;;;21.88;69.30;101756.06;5110650;28;20377;-76
2022/05/19 12:42:34;;;;;;;0.00;0.00;;;;;;;21.91;68.60;101747.81;5110307;28;20032;-76
2022/05/19 12:45:15;;;;;;;0.00;0.00;;;;;;;22.02;68.79;101757.13;5094921;28;20037;-76
2022/05/19 12:47:59;;;;;;;0.28;0.22;;;;;;;22.11;68.63;101746.72;5090454;28;20033;-76
2022/05/19 12:50:45;;;;;;;0.10;0.10;;;;;;;22.23;69.17;101766.78;5109346;28;20028;-76
2022/05/19 12:53:51;;;;;;;0.10;0.10;;;;;;;22.41;69.75;101774.88;5109868;28;20031;-76
2022/05/19 13:02:05;;;;;;;0.20;0.20;;;;;;;23.09;68.76;101766.50;5110426;27;20415;-81
2022/05/19 13:04:54;;;;;;;0.28;0.28;;;;;;;23.47;70.02;101784.13;5111728;28;20074;-81
2022/05/19 13:12:47;;;;;;;0.10;0.10;;;;;;;24.10;68.01;101795.72;5093463;27;1893171;-82
2022/05/19 13:15:27;;;;;;;0.10;0.10;;;;;;;24.27;68.48;101796.50;5126438;28;20035;-82
2022/05/19 13:17:55;;;;;;;0.50;0.50;;;;;;;24.48;68.45;101792.41;5106182;28;20296;-82
2022/05/19 13:20:26;;;;;;;1.20;1.17;;;;;;;24.74;67.28;101789.88;5114979;28;20086;-83
2022/05/19 13:22:59;;;;;;;0.10;0.10;;;;;;;24.90;67.10;101784.34;5115193;28;20121;-82
2022/05/19 13:25:26;;;;;;;0.10;0.10;;;;;;;25.11;66.75;101792.88;5115438;28;20024;-82
2022/05/19 13:30:44;;;;;;;0.60;0.60;;;;;;;25.54;66.70;101786.41;5137836;27;1200771;-83
2022/05/19 13:33:18;;;;;;;0.20;0.20;;;;;;;25.70;65.75;101786.22;5156696;27;20057;-83
2022/05/19 13:35:44;;;;;;;0.20;0.20;;;;;;;25.98;64.91;101787.00;5152606;27;20066;-83
2022/05/19 13:40:55;;;;;;;0.60;0.60;;;;;;;26.28;60.89;101797.56;5117432;27;1192391;-83
2022/05/19 13:46:13;;;;;;;0.35;0.28;;;;;;;26.42;61.23;101812.88;5131786;27;20366;-84
2022/05/19 13:51:31;;;;;;;0.00;0.00;;;;;;;26.66;59.40;101825.66;5122721;27;1202907;-84